Time;durP1;ratioP1;P1;durP2;ratioP2;P2;SDS_P1;SDS_P2;PMS_P1;PMS_P2;Temp;Humidity;BMP_temperature;BMP_pressure;BME280_temperature;BME280_humidity;BME280_pressure;Samples;Min_cycle;Max_cycle;Signal;HPM_P1;HPM_P2
2021/05/16 00:01:20;;;;;;;;;;;;;;;21.65;42.05;100222.16;1704737;84;20236;-77
2021/05/16 00:03:48;;;;;;;;;;;;;;;21.58;42.21;100216.84;1704401;84;20130;-77
2021/05/16 00:06:14;;;;;;;;;;;;;;;21.59;42.14;100214.94;1703526;84;20275;-78
2021/05/16 00:08:41;;;;;;;;;;;;;;;21.55;42.28;100214.57;1703799;84;20249;-78
2021/05/16 00:11:07;;;;;;;;;;;;;;;21.51;42.47;100218.30;1703799;84;20145;-78
2021/05/16 00:13:35;;;;;;;;;;;;;;;21.47;42.55;100216.28;1714294;83;20220;-78
2021/05/16 00:16:00;;;;;;;;;;;;;;;21.44;42.52;100213.51;1717799;83;20235;-78
2021/05/16 00:18:27;;;;;;;;;;;;;;;21.42;42.45;100214.80;1720319;83;20234;-78
2021/05/16 00:20:53;;;;;;;;;;;;;;;21.40;42.39;100220.48;1719934;83;20239;-77
2021/05/16 00:23:19;;;;;;;;;;;;;;;21.37;42.37;100216.86;1720990;82;20212;-78
2021/05/16 00:25:45;;;;;;;;;;;;;;;21.35;42.38;100221.73;1706115;84;20781;-77
2021/05/16 00:28:11;;;;;;;;;;;;;;;21.34;42.38;100221.95;1705390;84;20370;-78
2021/05/16 00:30:37;;;;;;;;;;;;;;;21.35;42.37;100220.88;1705801;84;20301;-78
2021/05/16 00:33:04;;;;;;;;;;;;;;;21.34;42.47;100220.05;1705354;84;20236;-78
2021/05/16 00:35:32;;;;;;;;;;;;;;;21.34;42.57;100219.22;1728349;81;20566;-78
2021/05/16 00:37:59;;;;;;;;;;;;;;;21.33;42.32;100224.38;1750533;80;20215;-77
2021/05/16 00:40:25;;;;;;;;;;;;;;;21.30;42.34;100216.09;1746398;81;20246;-77
2021/05/16 00:42:51;;;;;;;;;;;;;;;21.28;42.56;100216.87;1754990;80;20258;-78
2021/05/16 00:45:19;;;;;;;;;;;;;;;21.24;42.65;100215.15;1750755;81;20158;-78
2021/05/16 00:47:57;;;;;;;;;;;;;;;21.18;42.76;100214.73;1753351;81;20158;-78
2021/05/16 00:50:28;;;;;;;;;;;;;;;21.15;42.85;100221.17;1752847;81;20282;-77
2021/05/16 00:52:54;;;;;;;;;;;;;;;21.10;42.93;100217.78;1751642;81;20221;-77
2021/05/16 00:55:22;;;;;;;;;;;;;;;21.06;42.98;100217.95;1750251;81;20246;-77
2021/05/16 00:57:49;;;;;;;;;;;;;;;21.02;43.20;100219.47;1726894;81;20281;-77
2021/05/16 01:00:17;;;;;;;;;;;;;;;20.99;43.33;100215.88;1752073;80;20206;-77
2021/05/16 01:02:43;;;;;;;;;;;;;;;20.97;43.37;100223.42;1753833;81;20182;-78
2021/05/16 01:05:15;;;;;;;;;;;;;;;20.96;43.46;100222.60;1748798;80;20237;-77
2021/05/16 01:07:41;;;;;;;;;;;;;;;20.98;43.56;100227.80;1750800;81;20191;-77
2021/05/16 01:10:09;;;;;;;;;;;;;;;20.97;43.55;100224.79;1753983;81;20171;-77
2021/05/16 01:12:45;;;;;;;;;;;;;;;20.98;43.56;100218.27;1761583;81;20198;-77
2021/05/16 01:15:09;;;;;;;;;;;;;;;20.95;43.54;100223.67;1754986;81;20575;-77
2021/05/16 01:17:36;;;;;;;;;;;;;;;20.92;43.59;100228.75;1754199;80;20203;-77
2021/05/16 01:20:04;;;;;;;;;;;;;;;20.95;43.55;100229.66;1751104;81;20535;-77
2021/05/16 01:22:32;;;;;;;;;;;;;;;20.95;43.62;100229.12;1723494;81;20238;-77
2021/05/16 01:24:58;;;;;;;;;;;;;;;20.94;43.59;100225.28;1751566;81;20288;-77
2021/05/16 01:27:25;;;;;;;;;;;;;;;20.91;43.60;100225.73;1750628;81;20227;-77
2021/05/16 01:29:51;;;;;;;;;;;;;;;20.89;43.67;100225.11;1759630;81;20211;-76
2021/05/16 01:32:21;;;;;;;;;;;;;;;20.86;43.78;100226.96;1767330;81;20194;-76
2021/05/16 01:34:45;;;;;;;;;;;;;;;20.85;43.83;100222.05;1767773;81;20214;-75
2021/05/16 01:37:12;;;;;;;;;;;;;;;20.83;43.77;100223.33;1768286;81;20198;-77
2021/05/16 01:39:40;;;;;;;;;;;;;;;20.81;43.89;100220.84;1767790;80;20227;-77
2021/05/16 01:42:07;;;;;;;;;;;;;;;20.81;43.94;100228.19;1767779;80;20210;-77
2021/05/16 01:44:33;;;;;;;;;;;;;;;20.78;43.92;100222.12;1767819;81;20158;-77
2021/05/16 01:47:01;;;;;;;;;;;;;;;20.73;44.10;100225.25;1767955;81;20195;-78
2021/05/16 01:49:39;;;;;;;;;;;;;;;20.68;44.22;100217.77;1767884;81;20556;-78
2021/05/16 01:52:05;;;;;;;;;;;;;;;20.66;44.24;100218.52;1766467;81;20171;-76
2021/05/16 01:54:31;;;;;;;;;;;;;;;20.65;44.26;100218.22;1767739;81;20151;-77
2021/05/16 01:56:58;;;;;;;;;;;;;;;20.63;44.31;100216.28;1768275;81;20143;-77
2021/05/16 01:59:24;;;;;;;;;;;;;;;20.62;44.37;100219.20;1768035;81;20273;-77
2021/05/16 02:01:50;;;;;;;;;;;;;;;20.60;44.39;100219.45;1767791;81;20175;-77
2021/05/16 02:04:16;;;;;;;;;;;;;;;20.57;44.45;100222.62;1767644;80;20136;-77
2021/05/16 02:06:43;;;;;;;;;;;;;;;20.53;44.52;100224.16;1767467;81;20155;-77
2021/05/16 02:09:10;;;;;;;;;;;;;;;20.51;44.58;100216.74;1767493;81;20535;-77
2021/05/16 02:11:37;;;;;;;;;;;;;;;20.52;44.66;100225.20;1767579;80;20159;-77
2021/05/16 02:14:07;;;;;;;;;;;;;;;20.49;44.72;100217.52;1767692;81;20143;-77
2021/05/16 02:16:34;;;;;;;;;;;;;;;20.47;44.67;100216.36;1767738;80;20175;-76
2021/05/16 02:19:04;;;;;;;;;;;;;;;20.45;44.70;100220.36;1767301;81;20155;-76
2021/05/16 02:21:32;;;;;;;;;;;;;;;20.43;44.77;100224.64;1767841;81;20160;-77
2021/05/16 02:23:58;;;;;;;;;;;;;;;20.43;44.83;100219.73;1767477;81;20151;-77
2021/05/16 02:26:43;;;;;;;;;;;;;;;20.41;44.67;100229.50;1767932;81;20179;-76
2021/05/16 02:29:09;;;;;;;;;;;;;;;20.37;44.68;100231.55;1768901;81;20135;-77
2021/05/16 02:31:36;;;;;;;;;;;;;;;20.65;44.08;100235.91;1768176;80;20227;-76
2021/05/16 02:34:02;;;;;;;;;;;;;;;20.68;43.91;100236.00;1767661;81;20190;-76
2021/05/16 02:36:30;;;;;;;;;;;;;;;20.67;43.94;100241.14;1767681;81;20170;-76
2021/05/16 02:38:56;;;;;;;;;;;;;;;20.64;43.98;100230.17;1767581;81;20227;-76
2021/05/16 02:41:22;;;;;;;;;;;;;;;20.65;44.10;100239.99;1767581;80;20155;-76
2021/05/16 02:43:48;;;;;;;;;;;;;;;20.67;44.04;100236.53;1748171;81;20151;-76
2021/05/16 02:46:16;;;;;;;;;;;;;;;20.68;44.09;100236.00;1767597;80;20135;-77
2021/05/16 02:48:43;;;;;;;;;;;;;;;20.69;44.17;100233.56;1767538;80;20159;-76
2021/05/16 02:51:09;;;;;;;;;;;;;;;20.69;44.20;100230.84;1767739;80;20546;-76
2021/05/16 02:53:37;;;;;;;;;;;;;;;20.68;44.20;100231.91;1767516;80;20535;-76
2021/05/16 02:56:04;;;;;;;;;;;;;;;20.65;44.28;100235.91;1767437;81;20159;-76
2021/05/16 02:58:31;;;;;;;;;;;;;;;20.67;44.27;100229.73;1767618;81;20195;-76
2021/05/16 03:00:57;;;;;;;;;;;;;;;20.70;44.40;100232.50;1767616;81;20524;-76
2021/05/16 03:03:24;;;;;;;;;;;;;;;20.74;44.42;100237.25;1767585;81;20551;-76
2021/05/16 03:05:52;;;;;;;;;;;;;;;20.76;44.42;100235.15;1767051;81;20135;-77
2021/05/16 03:08:19;;;;;;;;;;;;;;;20.79;44.41;100237.92;1767630;80;20136;-76
2021/05/16 03:10:46;;;;;;;;;;;;;;;20.84;44.35;100239.95;1767622;80;20159;-76
2021/05/16 03:13:13;;;;;;;;;;;;;;;20.88;44.17;100239.80;1767486;81;20151;-76
2021/05/16 03:15:39;;;;;;;;;;;;;;;20.90;44.28;100243.13;1748560;81;20179;-76
2021/05/16 03:18:06;;;;;;;;;;;;;;;20.89;44.24;100240.09;1767615;81;20215;-76
2021/05/16 03:20:32;;;;;;;;;;;;;;;20.87;44.35;100246.30;1767649;81;20171;-76
2021/05/16 03:22:58;;;;;;;;;;;;;;;20.86;44.51;100240.57;1767597;81;20237;-76
2021/05/16 03:25:26;;;;;;;;;;;;;;;20.85;44.66;100247.05;1767655;80;20548;-76
2021/05/16 03:27:53;;;;;;;;;;;;;;;20.86;44.60;100246.02;1767618;81;20147;-76
2021/05/16 03:30:20;;;;;;;;;;;;;;;20.87;44.64;100246.30;1767414;81;20163;-76
2021/05/16 03:32:46;;;;;;;;;;;;;;;20.87;44.69;100244.41;1767712;81;20186;-76
2021/05/16 03:35:13;;;;;;;;;;;;;;;20.88;44.70;100243.34;1767708;80;20218;-77
2021/05/16 03:37:39;;;;;;;;;;;;;;;20.88;44.66;100246.60;1767792;80;20174;-76
2021/05/16 03:40:06;;;;;;;;;;;;;;;20.88;44.71;100241.98;1767604;81;20143;-76
2021/05/16 03:42:36;;;;;;;;;;;;;;;20.53;45.61;100240.48;1748783;81;20158;-76
2021/05/16 03:45:04;;;;;;;;;;;;;;;20.48;45.67;100238.45;1767649;81;20155;-77
2021/05/16 03:47:30;;;;;;;;;;;;;;;20.50;45.86;100238.22;1748309;81;20150;-76
2021/05/16 03:49:56;;;;;;;;;;;;;;;20.51;45.92;100242.59;1767574;81;20142;-76
2021/05/16 03:52:22;;;;;;;;;;;;;;;20.52;45.96;100247.80;1767935;81;20179;-76
2021/05/16 03:54:49;;;;;;;;;;;;;;;20.58;45.66;100251.52;1767702;81;20207;-76
2021/05/16 03:57:16;;;;;;;;;;;;;;;20.57;45.82;100250.36;1766024;81;20238;-76
2021/05/16 03:59:43;;;;;;;;;;;;;;;20.91;45.23;100252.42;1765988;80;20194;-76
2021/05/16 04:02:10;;;;;;;;;;;;;;;21.02;45.02;100254.88;1765967;81;20191;-76
2021/05/16 04:04:36;;;;;;;;;;;;;;;20.80;45.53;100259.17;1766024;81;20250;-76
2021/05/16 04:07:02;;;;;;;;;;;;;;;20.84;45.74;100263.92;1765823;80;20622;-76
2021/05/16 04:09:29;;;;;;;;;;;;;;;20.92;45.96;100265.50;1765934;80;20227;-76
2021/05/16 04:11:56;;;;;;;;;;;;;;;21.00;45.62;100266.55;1767088;81;20175;-76
2021/05/16 04:14:25;;;;;;;;;;;;;;;21.04;45.63;100262.30;1749475;81;20257;-76
2021/05/16 04:16:52;;;;;;;;;;;;;;;21.14;45.70;100258.47;1744526;81;20174;-76
2021/05/16 04:19:19;;;;;;;;;;;;;;;21.24;45.56;100261.45;1743412;82;20249;-77
2021/05/16 04:21:45;;;;;;;;;;;;;;;21.34;45.52;100252.74;1743743;81;20313;-77
2021/05/16 04:24:11;;;;;;;;;;;;;;;;;;1740674;82;20289;-76
2021/05/16 04:26:37;;;;;;;;;;;;;;;21.56;45.36;100262.56;1735956;80;20277;-77
2021/05/16 04:29:04;;;;;;;;;;;;;;;21.67;45.18;100259.56;1735218;82;20329;-76
2021/05/16 04:31:30;;;;;;;;;;;;;;;21.77;45.00;100252.45;1736123;82;20591;-76
2021/05/16 04:33:56;;;;;;;;;;;;;;;21.89;44.99;100257.91;1736013;82;20277;-77
2021/05/16 04:36:22;;;;;;;;;;;;;;;21.99;44.48;100253.22;1734000;82;20791;-76
2021/05/16 04:38:48;;;;;;;;;;;;;;;22.08;44.29;100255.88;1733781;82;20265;-77
2021/05/16 04:41:15;;;;;;;;;;;;;;;22.15;44.43;100264.78;1735398;82;20261;-77
2021/05/16 04:43:41;;;;;;;;;;;;;;;22.23;44.29;100264.96;1736293;82;20278;-77
2021/05/16 04:46:08;;;;;;;;;;;;;;;22.31;43.75;100261.88;1757798;80;20265;-77
2021/05/16 04:48:36;;;;;;;;;;;;;;;22.40;43.43;100263.16;1786050;80;20220;-77
2021/05/16 04:51:02;;;;;;;;;;;;;;;22.51;43.03;100270.47;1785538;80;20261;-77
2021/05/16 04:53:30;;;;;;;;;;;;;;;22.60;43.14;100265.47;1786327;80;20248;-77
2021/05/16 04:55:56;;;;;;;;;;;;;;;22.68;43.04;100263.73;1786686;80;20175;-77
2021/05/16 04:58:24;;;;;;;;;;;;;;;22.76;42.88;100262.52;1786488;80;20139;-76
2021/05/16 05:00:50;;;;;;;;;;;;;;;22.80;42.97;100254.14;1787027;80;20187;-77
2021/05/16 05:03:17;;;;;;;;;;;;;;;22.87;42.96;100258.08;1786110;80;20547;-77
2021/05/16 05:05:46;;;;;;;;;;;;;;;22.93;43.25;100258.48;1784850;80;20266;-77
2021/05/16 05:08:12;;;;;;;;;;;;;;;23.36;42.83;100258.45;1784689;80;20626;-77
2021/05/16 05:10:38;;;;;;;;;;;;;;;23.12;43.61;100266.78;1784781;80;20243;-78
2021/05/16 05:13:04;;;;;;;;;;;;;;;23.13;44.37;100268.44;1784581;80;20732;-78
2021/05/16 05:15:32;;;;;;;;;;;;;;;23.16;44.17;100270.66;1739391;81;20229;-78
2021/05/16 05:17:58;;;;;;;;;;;;;;;23.18;44.15;100264.43;1737075;82;20188;-78
2021/05/16 05:20:24;;;;;;;;;;;;;;;23.22;44.54;100261.50;1737927;82;20243;-78
2021/05/16 05:22:51;;;;;;;;;;;;;;;23.26;44.39;100268.13;1738527;82;20681;-78
2021/05/16 05:25:18;;;;;;;;;;;;;;;23.27;44.42;100271.15;1738490;82;20187;-78
2021/05/16 05:27:44;;;;;;;;;;;;;;;23.29;44.58;100276.36;1738873;82;20183;-78
2021/05/16 05:30:11;;;;;;;;;;;;;;;23.29;45.03;100268.16;1738983;82;20285;-78
2021/05/16 05:32:37;;;;;;;;;;;;;;;23.31;45.20;100280.23;1738362;82;20255;-78
2021/05/16 05:35:05;;;;;;;;;;;;;;;23.30;45.35;100279.41;1739417;81;20251;-78
2021/05/16 05:37:31;;;;;;;;;;;;;;;23.32;45.11;100279.15;1706984;82;20292;-78
2021/05/16 05:39:57;;;;;;;;;;;;;;;23.34;44.98;100290.65;1738133;82;20143;-79
2021/05/16 05:42:25;;;;;;;;;;;;;;;23.34;44.76;100291.48;1720576;82;20209;-76
2021/05/16 05:44:51;;;;;;;;;;;;;;;23.34;44.71;100301.58;1700629;84;20241;-76
2021/05/16 05:47:17;;;;;;;;;;;;;;;23.29;45.33;100300.95;1700167;84;20292;-76
2021/05/16 05:49:43;;;;;;;;;;;;;;;23.31;45.95;100299.36;1709725;82;20267;-76
2021/05/16 05:52:10;;;;;;;;;;;;;;;23.31;45.00;100293.36;1736784;82;20411;-76
2021/05/16 05:54:38;;;;;;;;;;;;;;;23.33;44.80;100299.39;1738361;82;20155;-76
2021/05/16 05:57:06;;;;;;;;;;;;;;;23.37;44.57;100305.20;1738240;82;20163;-76
2021/05/16 05:59:33;;;;;;;;;;;;;;;23.42;43.99;100308.02;1737619;82;20267;-77
2021/05/16 06:02:00;;;;;;;;;;;;;;;23.49;43.75;100310.08;1736892;82;20250;-77
2021/05/16 06:04:26;;;;;;;;;;;;;;;23.57;42.79;100301.44;1736871;82;20262;-77
2021/05/16 06:06:52;;;;;;;;;;;;;;;23.68;42.22;100306.59;1736739;81;20250;-77
2021/05/16 06:09:18;;;;;;;;;;;;;;;23.78;41.77;100294.44;1737845;82;20210;-77
2021/05/16 06:11:44;;;;;;;;;;;;;;;23.88;41.28;100292.40;1729308;82;20243;-77
2021/05/16 06:14:10;;;;;;;;;;;;;;;23.99;40.88;100286.84;1735348;82;20254;-77
2021/05/16 06:16:36;;;;;;;;;;;;;;;24.10;40.86;100286.45;1735419;82;20254;-77
2021/05/16 06:19:02;;;;;;;;;;;;;;;24.21;40.35;100290.14;1735569;82;20210;-77
2021/05/16 06:21:28;;;;;;;;;;;;;;;24.32;40.05;100284.30;1736203;81;20227;-77
2021/05/16 06:24:04;;;;;;;;;;;;;;;24.43;39.74;100286.92;1735384;82;20556;-77
2021/05/16 06:26:29;;;;;;;;;;;;;;;24.55;39.32;100285.45;1765336;81;20281;-76
2021/05/16 06:28:56;;;;;;;;;;;;;;;24.71;38.45;100285.94;1753659;81;20194;-76
2021/05/16 06:31:23;;;;;;;;;;;;;;;24.88;37.98;100284.46;1736817;81;20292;-77
2021/05/16 06:33:50;;;;;;;;;;;;;;;25.05;37.88;100288.48;1733079;80;20295;-77
2021/05/16 06:36:17;;;;;;;;;;;;;;;25.23;37.34;100287.34;1732942;82;20456;-77
2021/05/16 06:38:43;;;;;;;;;;;;;;;25.43;37.27;100283.95;1734954;82;20309;-77
2021/05/16 06:41:10;;;;;;;;;;;;;;;25.66;37.12;100286.88;1734924;82;20328;-77
2021/05/16 06:43:36;;;;;;;;;;;;;;;25.91;36.45;100280.80;1735731;80;20221;-77
2021/05/16 06:46:02;;;;;;;;;;;;;;;26.18;36.05;100275.21;1724501;82;20261;-77
2021/05/16 06:48:27;;;;;;;;;;;;;;;26.42;35.31;100282.47;1750595;81;20173;-77
2021/05/16 06:50:54;;;;;;;;;;;;;;;26.65;35.02;100273.80;1749191;81;20299;-77
2021/05/16 06:53:20;;;;;;;;;;;;;;;26.85;34.65;100281.31;1748206;82;20316;-77
2021/05/16 06:55:47;;;;;;;;;;;;;;;27.07;34.17;100275.59;1749087;80;20272;-77
2021/05/16 06:58:14;;;;;;;;;;;;;;;27.25;33.43;100268.75;1756249;80;20332;-77
2021/05/16 07:00:40;;;;;;;;;;;;;;;27.41;33.17;100274.55;1750459;81;20276;-77
2021/05/16 07:03:06;;;;;;;;;;;;;;;27.54;32.75;100278.14;1750965;81;20335;-76
2021/05/16 07:05:33;;;;;;;;;;;;;;;27.57;32.08;100283.66;1752029;81;20275;-77
2021/05/16 07:07:59;;;;;;;;;;;;;;;27.53;31.87;100299.88;1752517;82;20323;-77
2021/05/16 07:10:25;;;;;;;;;;;;;;;27.54;32.19;100302.91;1752919;82;20538;-76
2021/05/16 07:12:51;;;;;;;;;;;;;;;27.62;32.56;100296.59;1752393;82;20216;-77
2021/05/16 07:15:17;;;;;;;;;;;;;;;27.73;32.58;100289.45;1753160;81;20196;-77
2021/05/16 07:17:44;;;;;;;;;;;;;;;27.90;32.40;100281.45;1752819;81;20299;-77
2021/05/16 07:20:11;;;;;;;;;;;;;;;28.06;31.94;100278.38;1745341;81;20510;-77
2021/05/16 07:22:37;;;;;;;;;;;;;;;28.21;31.61;100271.21;1746374;81;20146;-76
2021/05/16 07:25:05;;;;;;;;;;;;;;;28.38;31.45;100276.40;1700233;84;20247;-76
2021/05/16 07:27:31;;;;;;;;;;;;;;;28.48;30.94;100274.98;1707726;83;20238;-76
2021/05/16 07:29:56;;;;;;;;;;;;;;;28.51;31.05;100275.80;1713030;83;20219;-77
2021/05/16 07:32:22;;;;;;;;;;;;;;;28.53;31.30;100279.12;1684232;84;20775;-77
2021/05/16 07:34:50;;;;;;;;;;;;;;;28.54;31.34;100273.31;1708261;82;20249;-77
2021/05/16 07:37:16;;;;;;;;;;;;;;;28.57;31.28;100271.94;1731254;82;20261;-77
2021/05/16 07:39:42;;;;;;;;;;;;;;;28.55;31.14;100263.11;1766182;81;20210;-77
2021/05/16 07:42:09;;;;;;;;;;;;;;;28.56;31.13;100265.58;1760963;81;20542;-77
2021/05/16 07:44:35;;;;;;;;;;;;;;;28.63;31.38;100266.66;1750299;81;20253;-77
2021/05/16 07:47:05;;;;;;;;;;;;;;;28.74;31.20;100268.25;1748073;81;20193;-77
2021/05/16 07:49:29;;;;;;;;;;;;;;;28.85;30.39;100275.11;1748077;82;20609;-77
2021/05/16 07:51:54;;;;;;;;;;;;;;;28.94;29.93;100270.64;1749961;81;20280;-77
2021/05/16 07:54:21;;;;;;;;;;;;;;;29.04;30.14;100271.98;1750278;81;20272;-77
2021/05/16 07:56:47;;;;;;;;;;;;;;;29.14;30.11;100267.77;1751712;80;20340;-77
2021/05/16 07:59:13;;;;;;;;;;;;;;;29.26;30.44;100272.39;1782263;80;20257;-77
2021/05/16 08:01:39;;;;;;;;;;;;;;;29.39;29.82;100267.31;1782334;80;20489;-76
2021/05/16 08:04:05;;;;;;;;;;;;;;;29.85;29.06;100271.11;1783085;80;20235;-77
2021/05/16 08:06:31;;;;;;;;;;;;;;;29.61;29.55;100276.55;1744099;80;20200;-77
2021/05/16 08:08:56;;;;;;;;;;;;;;;29.62;28.76;100276.28;1733865;82;20483;-77
2021/05/16 08:11:22;;;;;;;;;;;;;;;29.58;28.86;100275.20;1733963;82;20706;-77
2021/05/16 08:13:48;;;;;;;;;;;;;;;29.56;29.03;100270.52;1734118;82;20192;-77
2021/05/16 08:16:14;;;;;;;;;;;;;;;29.53;29.00;100265.00;1733669;82;20286;-77
2021/05/16 08:18:42;;;;;;;;;;;;;;;29.52;29.08;100273.55;1734143;82;20236;-77
2021/05/16 08:21:08;;;;;;;;;;;;;;;29.51;29.34;100275.49;1734117;82;20180;-77
2021/05/16 08:23:34;;;;;;;;;;;;;;;29.49;28.81;100267.25;1726636;82;20248;-77
2021/05/16 08:26:01;;;;;;;;;;;;;;;29.38;29.18;100269.25;1706871;83;20234;-77
2021/05/16 08:28:27;;;;;;;;;;;;;;;29.38;29.28;100270.63;1706176;84;20560;-77
2021/05/16 08:30:53;;;;;;;;;;;;;;;29.37;29.26;100268.16;1707983;82;20204;-77
2021/05/16 08:33:19;;;;;;;;;;;;;;;29.35;29.27;100265.70;1707412;84;20238;-77
2021/05/16 08:35:45;;;;;;;;;;;;;;;29.34;29.46;100262.66;1706981;83;20599;-77
2021/05/16 08:38:11;;;;;;;;;;;;;;;29.35;29.49;100265.70;1707787;82;20170;-78
2021/05/16 08:40:37;;;;;;;;;;;;;;;29.37;29.43;100270.92;1706952;84;20528;-76
2021/05/16 08:43:03;;;;;;;;;;;;;;;29.38;29.05;100265.11;1707088;84;20190;-78
2021/05/16 08:45:30;;;;;;;;;;;;;;;29.37;28.84;100268.16;1706397;84;20636;-77
2021/05/16 08:47:59;;;;;;;;;;;;;;;29.35;28.84;100263.50;1706371;84;20588;-78
2021/05/16 08:50:25;;;;;;;;;;;;;;;29.34;29.19;100261.28;1747292;82;20616;-76
2021/05/16 08:52:53;;;;;;;;;;;;;;;29.32;29.50;100249.16;1749752;81;20252;-78
2021/05/16 08:55:19;;;;;;;;;;;;;;;29.33;28.74;100249.42;1751077;82;20291;-78
2021/05/16 08:57:45;;;;;;;;;;;;;;;29.33;28.87;100246.66;1750153;81;20208;-77
2021/05/16 09:00:17;;;;;;;;;;;;;;;29.32;28.38;100249.72;1750310;81;20181;-78
2021/05/16 09:03:06;;;;;;;;;;;;;;;29.21;27.97;100251.74;1750195;82;20244;-77
2021/05/16 09:05:39;;;;;;;;;;;;;;;29.00;27.95;100240.58;1750037;82;20221;-77
2021/05/16 09:08:16;;;;;;;;;;;;;;;28.80;28.36;100235.44;1750562;81;20241;-77
2021/05/16 09:10:44;;;;;;;;;;;;;;;28.75;28.88;100235.47;1750054;81;20256;-77
2021/05/16 09:13:16;;;;;;;;;;;;;;;28.98;28.66;100241.43;1750272;81;20288;-77
2021/05/16 09:16:09;;;;;;;;;;;;;;;29.06;28.84;100231.14;1750407;81;20241;-77
2021/05/16 09:18:41;;;;;;;;;;;;;;;29.05;28.95;100228.13;1723378;82;20542;-77
2021/05/16 09:21:19;;;;;;;;;;;;;;;28.91;28.95;100236.74;1751683;82;20241;-76
2021/05/16 09:23:44;;;;;;;;;;;;;;;28.66;29.02;100228.91;1750750;82;20561;-76
2021/05/16 09:26:13;;;;;;;;;;;;;;;28.56;29.17;100228.93;1749873;80;20446;-76
2021/05/16 09:28:39;;;;;;;;;;;;;;;28.49;29.36;100228.44;1750814;81;20566;-78
2021/05/16 09:31:07;;;;;;;;;;;;;;;28.44;29.67;100226.52;1742709;80;20518;-78
2021/05/16 09:33:34;;;;;;;;;;;;;;;28.39;29.58;100227.08;1736880;80;20217;-78
2021/05/16 09:36:05;;;;;;;;;;;;;;;28.32;29.66;100228.19;1734819;80;20245;-78
2021/05/16 09:38:33;;;;;;;;;;;;;;;28.31;29.83;100222.41;1735308;82;20317;-76
2021/05/16 09:40:59;;;;;;;;;;;;;;;28.28;30.84;100227.09;1738302;80;20392;-78
2021/05/16 09:43:26;;;;;;;;;;;;;;;28.24;30.75;100221.05;1745825;80;20259;-78
2021/05/16 09:46:01;;;;;;;;;;;;;;;28.20;30.76;100212.52;1736069;82;20677;-76
2021/05/16 09:48:38;;;;;;;;;;;;;;;28.15;30.73;100209.79;1733492;82;20293;-76
2021/05/16 09:51:16;;;;;;;;;;;;;;;28.11;30.23;100214.20;1734050;82;20686;-76
2021/05/16 09:54:08;;;;;;;;;;;;;;;28.08;30.13;100208.46;1734124;82;20289;-76
2021/05/16 09:56:36;;;;;;;;;;;;;;;28.02;30.77;100209.86;1717198;83;20618;-77
2021/05/16 09:59:04;;;;;;;;;;;;;;;27.97;31.36;100215.91;1720628;83;20321;-77
2021/05/16 10:01:30;;;;;;;;;;;;;;;27.94;30.40;100211.80;1720099;83;20411;-77
2021/05/16 10:03:57;;;;;;;;;;;;;;;27.90;30.94;100215.39;1720386;83;20600;-77
2021/05/16 10:06:23;;;;;;;;;;;;;;;27.84;30.61;100206.85;1720463;83;20271;-76
2021/05/16 10:08:50;;;;;;;;;;;;;;;27.77;31.26;100201.09;1720563;83;20575;-77
2021/05/16 10:11:19;;;;;;;;;;;;;;;27.75;30.89;100199.19;1720330;83;20290;-77
2021/05/16 10:13:49;;;;;;;;;;;;;;;27.74;30.68;100196.14;1733875;80;20256;-77
2021/05/16 10:16:17;;;;;;;;;;;;;;;27.72;30.68;100206.62;1758470;80;20262;-76
2021/05/16 10:18:45;;;;;;;;;;;;;;;27.64;30.82;100194.76;1734531;82;20256;-76
2021/05/16 10:21:12;;;;;;;;;;;;;;;27.59;31.02;100200.83;1742348;80;20251;-76
2021/05/16 10:23:47;;;;;;;;;;;;;;;27.53;30.73;100203.59;1739177;82;20282;-76
2021/05/16 10:26:21;;;;;;;;;;;;;;;27.47;30.32;100199.73;1737690;82;20266;-76
2021/05/16 10:29:07;;;;;;;;;;;;;;;27.35;30.63;100194.53;1739374;82;21031;-76
2021/05/16 10:31:47;;;;;;;;;;;;;;;27.27;30.33;100198.64;1736845;82;20296;-76
2021/05/16 10:34:29;;;;;;;;;;;;;;;27.20;31.00;100195.88;1734774;82;20184;-77
2021/05/16 10:36:57;;;;;;;;;;;;;;;27.47;30.12;100185.97;1729051;82;20713;-78
2021/05/16 10:39:45;;;;;;;;;;;;;;;27.19;30.81;100192.31;1734235;82;20321;-77
2021/05/16 10:42:20;;;;;;;;;;;;;;;27.20;30.76;100182.95;1739747;82;20233;-76
2021/05/16 10:45:03;;;;;;;;;;;;;;;27.23;30.39;100186.54;1729747;82;20256;-77
2021/05/16 10:47:50;;;;;;;;;;;;;;;27.26;30.72;100177.75;1731857;82;20268;-77
2021/05/16 10:50:27;;;;;;;;;;;;;;;27.28;30.36;100178.84;1729932;81;20374;-77
2021/05/16 10:53:01;;;;;;;;;;;;;;;27.29;29.17;100180.48;1721824;82;20251;-77
2021/05/16 10:55:33;;;;;;;;;;;;;;;27.28;29.04;100178.28;1754342;79;20334;-76
2021/05/16 10:57:59;;;;;;;;;;;;;;;27.31;29.64;100171.42;1755754;80;20242;-76
2021/05/16 11:00:30;;;;;;;;;;;;;;;27.31;28.99;100165.38;1783301;80;20242;-77
2021/05/16 11:03:09;;;;;;;;;;;;;;;27.35;28.51;100160.70;1784327;80;20190;-76
2021/05/16 11:05:49;;;;;;;;;;;;;;;27.37;29.03;100166.18;1734469;82;20236;-75
2021/05/16 11:08:28;;;;;;;;;;;;;;;27.40;29.30;100150.51;1746326;80;20319;-77
2021/05/16 11:10:55;;;;;;;;;;;;;;;27.41;28.61;100150.77;1748416;80;20616;-76
2021/05/16 11:13:34;;;;;;;;;;;;;;;27.43;28.58;100152.69;1747480;81;20298;-77
2021/05/16 11:16:03;;;;;;;;;;;;;;;27.44;28.89;100146.66;1734473;82;20269;-75
2021/05/16 11:18:29;;;;;;;;;;;;;;;27.44;27.75;100139.78;1734347;82;20301;-76
2021/05/16 11:21:02;;;;;;;;;;;;;;;27.43;27.57;100139.48;1736490;80;20646;-76
2021/05/16 11:23:30;;;;;;;;;;;;;;;27.36;28.01;100137.03;1751128;82;20723;-76
2021/05/16 11:25:59;;;;;;;;;;;;;;;27.36;28.76;100139.78;1751554;81;20451;-76
2021/05/16 11:28:27;;;;;;;;;;;;;;;27.36;29.49;100133.47;1752209;82;20652;-77
2021/05/16 11:30:53;;;;;;;;;;;;;;;27.36;30.08;100128.78;1751817;81;20655;-76
2021/05/16 11:33:30;;;;;;;;;;;;;;;27.37;30.07;100122.73;1752247;81;20199;-76
2021/05/16 11:35:56;;;;;;;;;;;;;;;27.38;29.41;100121.62;1755604;81;20679;-76
2021/05/16 11:38:27;;;;;;;;;;;;;;;27.35;28.67;100126.32;1756928;80;20169;-77
2021/05/16 11:40:54;;;;;;;;;;;;;;;27.30;28.57;100121.09;1752707;79;20230;-77
2021/05/16 11:43:29;;;;;;;;;;;;;;;27.29;28.52;100118.05;1749145;81;20169;-76
2021/05/16 11:45:55;;;;;;;;;;;;;;;27.33;28.45;100110.63;1741616;80;20165;-77
2021/05/16 11:48:32;;;;;;;;;;;;;;;27.36;28.36;100112.84;1728622;80;20252;-77
2021/05/16 11:51:08;;;;;;;;;;;;;;;27.36;27.47;100110.91;1746929;80;20328;-77
2021/05/16 11:53:36;;;;;;;;;;;;;;;27.36;27.14;100105.96;1750319;82;20221;-77
2021/05/16 11:56:03;;;;;;;;;;;;;;;27.35;27.08;100108.45;1750559;80;20246;-75
2021/05/16 11:58:30;;;;;;;;;;;;;;;27.30;27.66;100104.59;1705997;82;20667;-77
2021/05/16 12:00:58;;;;;;;;;;;;;;;27.28;27.77;100102.66;1736236;82;20570;-77
2021/05/16 12:03:24;;;;;;;;;;;;;;;27.28;27.93;100095.78;1736431;82;20225;-77
2021/05/16 12:05:50;;;;;;;;;;;;;;;27.31;28.35;100098.55;1736119;82;20321;-76
2021/05/16 12:08:19;;;;;;;;;;;;;;;27.36;28.60;100094.95;1736614;82;20222;-76
2021/05/16 12:10:49;;;;;;;;;;;;;;;27.35;28.62;100088.64;1755274;80;20239;-76
2021/05/16 12:13:20;;;;;;;;;;;;;;;27.34;28.66;100084.22;1750269;80;20262;-76
2021/05/16 12:15:46;;;;;;;;;;;;;;;27.33;28.06;100088.08;1779061;79;20960;-76
2021/05/16 12:18:22;;;;;;;;;;;;;;;27.30;28.07;100085.34;1779550;79;20202;-76
2021/05/16 12:21:00;;;;;;;;;;;;;;;27.29;27.66;100091.11;1781450;80;20182;-77
2021/05/16 12:23:26;;;;;;;;;;;;;;;27.24;27.20;100080.94;1767005;80;20249;-75
2021/05/16 12:25:54;;;;;;;;;;;;;;;27.24;26.96;100081.49;1749887;80;20272;-76
2021/05/16 12:28:20;;;;;;;;;;;;;;;27.21;26.25;100076.57;1748764;81;20268;-75
2021/05/16 12:30:45;;;;;;;;;;;;;;;27.19;26.73;100078.75;1749495;81;20260;-76
2021/05/16 12:33:13;;;;;;;;;;;;;;;27.17;26.78;100070.80;1750517;82;20146;-76
2021/05/16 12:35:39;;;;;;;;;;;;;;;27.19;26.84;100070.51;1721042;82;20542;-76
2021/05/16 12:38:13;;;;;;;;;;;;;;;27.18;27.04;100065.56;1750116;82;20165;-76
2021/05/16 12:40:39;;;;;;;;;;;;;;;27.17;27.28;100061.73;1749451;82;20249;-76
2021/05/16 12:43:06;;;;;;;;;;;;;;;27.18;27.34;100058.69;1750875;82;20173;-77